Garrett, PA

6:50 AM EDT on July 30, 2016 (GMT -0400)
Buffalo Creek Rd. | | Change Station

Elev 2083 ft 39.90 °N, 78.99 °W | Updated 58 seconds ago

Rain
Rain
63.5 °F
Feels Like 63.5 °F
N
0.2
Wind Variable Wind from SE
Gusts 2.5 mph

Today
High -- | Low -- °F
--% Chance of Precip.
Yesterday
High -- | Low -- °F
Precip. -- in
Pressure 30.02 in
Visibility 4.0 miles
Clouds Scattered Clouds 500 ft
Scattered Clouds 1000 ft
Mostly Cloudy 7000 ft
Dew Point 63 °F
Humidity 97%
Rainfall 0.11 in
Snow Depth Not available.
6:13 AM 8:31 PM
Waning Crescent, 14% visible
METAR KCBE 301033Z AUTO 00000KT 4SM SCT005 SCT010 BKN070 21/21 A3002 RMK AO1
Pressure 30.02 in
Visibility 4.0 miles
Clouds Scattered Clouds 500 ft
Scattered Clouds 1000 ft
Mostly Cloudy 7000 ft
Dew Point 63 °F
Humidity 97%
Rainfall 0.11 in
Snow Depth Not available.
6:13 AM 8:31 PM
Waning Crescent, 14% visible
METAR KCBE 301033Z AUTO 00000KT 4SM SCT005 SCT010 BKN070 21/21 A3002 RMK AO1

10-Day Weather Forecast

Almanac

Astronomy

Jul. 30, 2016 Rise Set
Actual Time
Civil Twilight
Nautical Twilight
Astronomical Twilight
Moon
Length of Visible Light
Length of Day
Tomorrow will be .
, % of the Moon is Illuminated

Today's Extremes

State Highs State Lows

Community

WunderPhotos

Upload Photos

1,928,530 photos uploaded!

WunderBlog® & News

Nearby

Air Quality

  Air Quality AQ Index Pollutant
Not available.

Snow Depth

Station Depth Elevation

Earthquake Activity

City Distance Mag. Time & Date
Minimum magnitude displayed is 2.5.

Coastal Water Temperatures

Place Temperature

Stations

Nearby Weather Stations

Station Location Temp. Windchill Dew Point Humidity Wind Precip. Elev Updated Type
                   

Watches & Warnings

There are currently no watches in effect.